Time;durP1;ratioP1;P1;durP2;ratioP2;P2;SDS_P1;SDS_P2;PMS_P1;PMS_P2;Temp;Humidity;BMP_temperature;BMP_pressure;BME280_temperature;BME280_humidity;BME280_pressure;Samples;Min_cycle;Max_cycle;Signal;HPM_P1;HPM_P2
2023/03/31 00:00:29;;;;;;;9.75;5.18;;;;;;;10.36;66.86;96137.75;6184446;23;20024;-78
2023/03/31 00:02:57;;;;;;;7.80;2.55;;;;;;;10.37;66.00;96134.16;6184722;23;20455;-78
2023/03/31 00:05:25;;;;;;;7.25;2.00;;;;;;;10.31;65.39;96128.69;6184575;23;20052;-78
2023/03/31 00:07:53;;;;;;;7.05;1.90;;;;;;;10.25;65.31;96120.78;6185180;23;20028;-78
2023/03/31 00:10:22;;;;;;;11.90;1.70;;;;;;;10.13;65.47;96119.72;6185158;23;20021;-78
2023/03/31 00:12:50;;;;;;;4.15;1.20;;;;;;;10.08;65.59;96120.31;6184942;23;20020;-78
2023/03/31 00:15:18;;;;;;;5.28;2.15;;;;;;;10.08;68.68;96115.09;6184711;23;20021;-78
2023/03/31 00:17:46;;;;;;;13.27;4.45;;;;;;;10.12;68.60;96100.66;6184895;23;20077;-78
2023/03/31 00:20:14;;;;;;;10.10;3.47;;;;;;;10.15;67.32;96099.50;6185033;23;20467;-78
2023/03/31 00:22:45;;;;;;;8.68;4.07;;;;;;;10.15;69.74;96102.91;6184419;23;20363;-78
2023/03/31 00:25:14;;;;;;;14.50;6.00;;;;;;;10.11;67.64;96092.03;6184324;23;20020;-78
2023/03/31 00:27:44;;;;;;;9.10;4.20;;;;;;;10.05;67.06;96092.81;6184861;23;20024;-78
2023/03/31 00:30:13;;;;;;;8.27;4.10;;;;;;;10.02;69.46;96087.97;6185150;23;20025;-78
2023/03/31 00:32:41;;;;;;;7.07;2.90;;;;;;;10.05;68.37;96078.97;6184023;23;20017;-78
2023/03/31 00:35:09;;;;;;;6.32;2.60;;;;;;;10.02;68.22;96071.56;6184532;23;20026;-78
2023/03/31 00:37:37;;;;;;;7.03;2.70;;;;;;;9.97;70.30;96076.50;6184071;23;20029;-78
2023/03/31 00:40:08;;;;;;;8.95;2.28;;;;;;;9.98;69.07;96070.31;6184686;23;20021;-78
2023/03/31 00:42:39;;;;;;;7.13;2.15;;;;;;;9.99;68.77;96070.13;6184351;23;20107;-78
2023/03/31 00:45:27;;;;;;;6.25;3.00;;;;;;;10.02;67.82;96063.72;6184819;23;20353;-78
2023/03/31 00:48:02;;;;;;;10.60;4.45;;;;;;;10.02;71.47;96066.34;6184389;23;20069;-78
2023/03/31 00:50:34;;;;;;;18.95;11.00;;;;;;;10.01;68.64;96051.69;6186042;23;20524;-78
2023/03/31 00:53:04;;;;;;;;;;;;;;;10.01;69.91;96046.47;6200939;23;20036;-78
2023/03/31 00:55:35;;;;;;;17.52;7.70;;;;;;;9.99;67.54;96038.03;6202880;23;19923;-78
2023/03/31 00:58:07;;;;;;;15.27;8.13;;;;;;;9.93;67.31;96034.41;6202769;23;20085;-79
2023/03/31 01:00:36;;;;;;;13.07;6.53;;;;;;;9.89;67.73;96033.97;6202896;23;20513;-78
2023/03/31 01:03:08;;;;;;;6.85;2.70;;;;;;;9.89;67.40;96027.97;6203385;23;20078;-78
2023/03/31 01:05:42;;;;;;;6.32;2.58;;;;;;;9.87;67.15;96022.94;6204174;23;20025;-78
2023/03/31 01:08:11;;;;;;;6.20;2.03;;;;;;;9.83;67.00;96024.31;6198220;23;20025;-78
2023/03/31 01:10:41;;;;;;;4.40;1.90;;;;;;;9.80;67.19;96018.72;6198716;23;20017;-78
2023/03/31 01:13:11;;;;;;;5.05;2.05;;;;;;;9.78;67.09;96013.69;6187638;23;20028;-78
2023/03/31 01:15:41;;;;;;;3.95;1.40;;;;;;;9.74;67.13;96009.84;6184535;23;20072;-78
2023/03/31 01:18:11;;;;;;;5.55;1.98;;;;;;;9.74;66.89;96007.25;6184475;23;20028;-78
2023/03/31 01:21:02;;;;;;;6.55;2.13;;;;;;;9.74;67.05;95998.63;6185835;23;20099;-78
2023/03/31 01:24:11;;;;;;;7.65;3.15;;;;;;;9.74;66.92;95999.44;6185486;23;20017;-78
2023/03/31 01:26:56;;;;;;;7.43;2.50;;;;;;;9.70;66.69;96003.41;6185185;23;20027;-78
2023/03/31 01:29:53;;;;;;;5.05;1.70;;;;;;;9.69;68.05;96004.41;6184658;23;20025;-78
2023/03/31 01:33:07;;;;;;;9.38;3.28;;;;;;;9.72;66.86;96001.41;6125227;23;20032;-78
2023/03/31 01:36:07;;;;;;;6.28;1.90;;;;;;;9.71;66.68;96005.03;6184677;23;20025;-78
2023/03/31 01:39:07;;;;;;;6.40;2.53;;;;;;;9.69;66.70;96001.81;6176794;23;20108;-78
2023/03/31 01:41:49;;;;;;;10.32;2.40;;;;;;;9.69;66.65;95988.78;6145775;23;20335;-78
2023/03/31 01:44:23;;;;;;;5.15;2.40;;;;;;;9.68;66.60;95987.16;6184466;23;20489;-78
2023/03/31 01:46:55;;;;;;;5.65;2.65;;;;;;;9.69;66.54;95986.19;6184616;23;20021;-78
2023/03/31 01:49:34;;;;;;;15.65;2.65;;;;;;;9.70;66.52;95987.78;6184760;23;20028;-78
2023/03/31 01:52:08;;;;;;;8.30;3.10;;;;;;;9.71;66.48;95984.19;6184053;23;20021;-78
2023/03/31 01:54:43;;;;;;;6.32;2.17;;;;;;;9.74;66.37;95983.81;6184650;23;20017;-78
2023/03/31 01:57:15;;;;;;;5.60;2.13;;;;;;;9.76;66.44;95991.44;6186378;23;20025;-78
2023/03/31 01:59:50;;;;;;;8.77;2.55;;;;;;;9.81;66.83;95994.25;6186468;23;20021;-77
2023/03/31 02:02:23;;;;;;;7.72;3.08;;;;;;;9.84;66.08;95973.84;6185661;23;20024;-78
2023/03/31 02:04:57;;;;;;;8.35;2.33;;;;;;;9.88;66.19;95959.44;6186360;23;20021;-78
2023/03/31 02:07:32;;;;;;;8.93;2.40;;;;;;;9.88;65.90;95969.88;6186608;23;20024;-78
2023/03/31 02:10:04;;;;;;;7.15;2.10;;;;;;;9.88;66.04;95948.19;6186215;23;20157;-78
2023/03/31 02:12:35;;;;;;;4.50;1.70;;;;;;;9.88;65.95;95949.03;6186167;23;20027;-78
2023/03/31 02:15:09;;;;;;;4.40;1.67;;;;;;;9.90;65.64;95960.06;6186397;23;20075;-78
2023/03/31 02:17:39;;;;;;;3.50;1.75;;;;;;;9.93;65.62;95950.22;6186430;23;20096;-78
2023/03/31 02:20:11;;;;;;;5.60;2.28;;;;;;;9.95;65.37;95953.44;6186495;23;20017;-78
2023/03/31 02:22:43;;;;;;;5.80;1.88;;;;;;;9.98;65.30;95947.84;6186103;23;20027;-78
2023/03/31 02:25:15;;;;;;;5.38;1.55;;;;;;;10.02;65.29;95936.06;6185810;23;20489;-78
2023/03/31 02:27:49;;;;;;;5.13;1.58;;;;;;;10.06;66.63;95938.06;6186610;23;20100;-78
2023/03/31 02:30:17;;;;;;;4.97;1.50;;;;;;;10.10;65.87;95935.88;6187623;23;20358;-78
2023/03/31 02:32:45;;;;;;;8.95;2.00;;;;;;;10.13;66.06;95932.09;6186439;23;20031;-78
2023/03/31 02:35:17;;;;;;;8.02;2.88;;;;;;;10.16;65.67;95945.53;6185926;23;20032;-78
2023/03/31 02:37:45;;;;;;;5.80;1.60;;;;;;;10.21;67.96;95956.19;6186082;23;20366;-78
2023/03/31 02:40:17;;;;;;;5.70;1.80;;;;;;;10.26;68.19;95955.59;6186052;23;20096;-78
2023/03/31 02:42:46;;;;;;;8.38;1.60;;;;;;;10.31;68.27;95954.03;6185951;23;20021;-78
2023/03/31 02:45:44;;;;;;;6.85;1.90;;;;;;;10.40;68.33;95953.84;6185642;23;20103;-78
2023/03/31 02:48:18;;;;;;;5.70;1.52;;;;;;;10.47;67.40;95941.63;6185730;23;20474;-78
2023/03/31 02:51:13;;;;;;;3.47;1.33;;;;;;;10.55;67.84;95935.44;6185812;23;20021;-78
2023/03/31 02:53:57;;;;;;;3.55;2.40;;;;;;;10.62;68.20;95928.44;6185289;23;20472;-78
2023/03/31 02:56:41;;;;;;;4.07;1.17;;;;;;;10.68;67.53;95918.00;6185839;23;20031;-78
2023/03/31 02:59:32;;;;;;;3.05;1.27;;;;;;;10.75;69.08;95920.63;6185901;23;20021;-78
2023/03/31 03:02:10;;;;;;;6.85;1.70;;;;;;;10.79;69.05;95914.00;6185449;23;20020;-78
2023/03/31 03:04:54;;;;;;;2.92;1.67;;;;;;;10.83;70.42;95907.38;6185340;23;20044;-77
2023/03/31 03:07:28;;;;;;;3.83;1.65;;;;;;;10.87;67.39;95899.97;6185570;23;20100;-77
2023/03/31 03:10:02;;;;;;;3.80;1.30;;;;;;;10.89;66.56;95900.59;6186040;23;20024;-77
2023/03/31 03:12:37;;;;;;;3.80;1.40;;;;;;;10.93;65.88;95891.31;6185242;23;20052;-78
2023/03/31 03:15:10;;;;;;;6.15;1.88;;;;;;;10.96;66.07;95892.75;6185411;23;20031;-78
2023/03/31 03:17:42;;;;;;;6.82;1.70;;;;;;;10.99;69.14;95887.13;6185592;23;20017;-78
2023/03/31 03:20:11;;;;;;;5.65;1.48;;;;;;;11.03;69.35;95889.13;6185946;23;20025;-78
2023/03/31 03:22:39;;;;;;;5.57;1.95;;;;;;;11.07;70.44;95882.50;6185300;23;20021;-78
2023/03/31 03:25:09;;;;;;;3.33;1.42;;;;;;;11.09;70.09;95883.09;6185964;23;20087;-77
2023/03/31 03:27:37;;;;;;;6.50;1.60;;;;;;;11.11;68.56;95870.66;6185778;23;20067;-77
2023/03/31 03:30:09;;;;;;;3.58;1.85;;;;;;;11.12;69.39;95856.56;6185642;23;20020;-77
2023/03/31 03:32:37;;;;;;;5.45;1.92;;;;;;;11.14;68.27;95836.28;6185422;23;20067;-77
2023/03/31 03:35:06;;;;;;;5.53;2.30;;;;;;;11.17;67.63;95829.06;6185706;23;20024;-77
2023/03/31 03:37:34;;;;;;;6.32;1.98;;;;;;;11.16;67.54;95811.81;6185245;23;20021;-78
2023/03/31 03:40:04;;;;;;;6.55;1.85;;;;;;;11.12;66.88;95790.53;6185082;23;20028;-77
2023/03/31 03:42:32;;;;;;;5.55;2.33;;;;;;;11.06;66.68;95776.50;6185234;23;20027;-77
2023/03/31 03:45:00;;;;;;;8.82;1.92;;;;;;;10.99;67.05;95767.88;6185243;23;20020;-78
2023/03/31 03:47:29;;;;;;;7.50;2.30;;;;;;;10.93;67.15;95755.63;6185131;23;20100;-77
2023/03/31 03:49:56;;;;;;;7.65;2.28;;;;;;;10.85;67.30;95745.44;6184684;23;20163;-77
2023/03/31 03:52:24;;;;;;;5.47;1.77;;;;;;;10.82;67.49;95733.59;6184682;23;20021;-77
2023/03/31 03:54:51;;;;;;;6.05;2.67;;;;;;;10.77;67.82;95737.81;6185144;23;20021;-77
2023/03/31 03:57:19;;;;;;;3.72;2.20;;;;;;;10.71;68.68;95734.22;6185107;23;20024;-78
2023/03/31 03:59:47;;;;;;;6.25;2.17;;;;;;;10.71;69.79;95724.59;6185788;23;20021;-77
2023/03/31 04:02:14;;;;;;;4.50;2.08;;;;;;;10.76;69.75;95729.19;6206344;23;20061;-79
2023/03/31 04:04:43;;;;;;;5.75;2.00;;;;;;;10.81;70.08;95728.59;6203790;23;20075;-78
2023/03/31 04:07:11;;;;;;;6.15;2.08;;;;;;;10.83;69.42;95718.75;6185692;23;20017;-78
2023/03/31 04:09:39;;;;;;;7.72;2.25;;;;;;;10.81;68.18;95710.31;6185875;23;20021;-77
2023/03/31 04:12:06;;;;;;;4.70;1.95;;;;;;;10.77;68.62;95706.53;6198587;23;20032;-78
2023/03/31 04:14:34;;;;;;;8.43;2.85;;;;;;;10.76;69.06;95705.72;6198946;23;20024;-78
2023/03/31 04:17:02;;;;;;;12.40;3.78;;;;;;;10.78;68.73;95703.72;6186670;23;20021;-77
2023/03/31 04:19:29;;;;;;;8.38;3.78;;;;;;;10.77;69.27;95698.69;6185327;23;20092;-78
2023/03/31 04:22:01;;;;;;;9.88;3.80;;;;;;;10.78;69.70;95695.06;6185108;23;20021;-77
2023/03/31 04:24:31;;;;;;;9.38;3.53;;;;;;;10.77;69.69;95693.47;6185059;23;20021;-77
2023/03/31 04:27:01;;;;;;;12.13;4.50;;;;;;;10.76;70.05;95697.06;6184876;23;20021;-77
2023/03/31 04:29:32;;;;;;;11.05;3.42;;;;;;;10.75;69.56;95692.88;6185280;23;20067;-77
2023/03/31 04:32:00;;;;;;;6.90;2.83;;;;;;;10.74;69.44;95680.84;6184902;23;20021;-77
2023/03/31 04:34:33;;;;;;;8.45;3.13;;;;;;;10.76;70.96;95671.00;6184502;23;20075;-77
2023/03/31 04:37:03;;;;;;;6.18;2.35;;;;;;;10.74;69.57;95670.44;6185053;23;20021;-77
2023/03/31 04:39:31;;;;;;;6.35;3.05;;;;;;;10.71;70.20;95662.00;6185647;23;20104;-77
2023/03/31 04:42:00;;;;;;;8.00;2.55;;;;;;;10.69;69.18;95656.19;6184259;23;20108;-78
2023/03/31 04:44:28;;;;;;;14.77;3.15;;;;;;;10.65;70.41;95657.59;6184818;23;20398;-75
2023/03/31 04:46:57;;;;;;;4.28;2.65;;;;;;;10.62;69.85;95654.59;6184882;23;20104;-76
2023/03/31 04:49:25;;;;;;;6.93;3.05;;;;;;;10.57;69.79;95646.59;6185171;23;20048;-76
2023/03/31 04:51:52;;;;;;;6.63;2.90;;;;;;;10.51;69.56;95619.50;6184207;23;20021;-75
2023/03/31 04:54:21;;;;;;;5.65;2.88;;;;;;;10.47;69.38;95623.53;6184519;23;20021;-75
2023/03/31 04:56:49;;;;;;;8.05;2.95;;;;;;;10.44;69.15;95616.13;6183255;23;20496;-76
2023/03/31 04:59:17;;;;;;;4.15;2.70;;;;;;;10.34;68.98;95613.13;6184934;23;20083;-76
2023/03/31 05:01:44;;;;;;;8.57;3.40;;;;;;;10.19;69.42;95610.72;6184066;23;20017;-76
2023/03/31 05:04:12;;;;;;;8.02;3.90;;;;;;;10.07;69.67;95619.16;6184300;23;20048;-76
2023/03/31 05:06:44;;;;;;;10.13;4.28;;;;;;;10.01;70.26;95622.56;6185113;23;20534;-78
2023/03/31 05:09:12;;;;;;;5.60;4.05;;;;;;;10.01;71.23;95619.16;6187472;23;20097;-77
2023/03/31 05:11:41;;;;;;;9.93;3.85;;;;;;;9.98;70.46;95619.59;6183849;23;20466;-78
2023/03/31 05:14:09;;;;;;;8.73;3.50;;;;;;;9.97;71.66;95610.97;6184527;23;20477;-77
2023/03/31 05:16:36;;;;;;;6.65;3.17;;;;;;;10.00;71.60;95594.13;6184502;23;20025;-78
2023/03/31 05:19:04;;;;;;;8.05;4.10;;;;;;;10.02;71.85;95592.13;6184271;23;20021;-77
2023/03/31 05:21:32;;;;;;;9.73;5.20;;;;;;;10.03;71.62;95596.31;6184404;23;20056;-77
2023/03/31 05:23:59;;;;;;;6.03;4.20;;;;;;;10.01;71.30;95572.28;6184673;23;20025;-78
2023/03/31 05:26:27;;;;;;;7.82;4.85;;;;;;;9.97;72.12;95576.28;6184362;23;20463;-78
2023/03/31 05:28:56;;;;;;;8.35;5.43;;;;;;;9.96;71.90;95574.69;6184467;23;20017;-77
2023/03/31 05:31:24;;;;;;;11.27;4.93;;;;;;;9.93;72.25;95575.09;6185376;23;20047;-79
2023/03/31 05:33:51;;;;;;;7.75;4.68;;;;;;;9.93;72.96;95573.31;6185920;23;20025;-78
2023/03/31 05:36:19;;;;;;;9.40;4.93;;;;;;;9.92;72.35;95570.91;6186832;23;20099;-78
2023/03/31 05:38:46;;;;;;;9.55;5.20;;;;;;;9.90;72.10;95568.47;6186101;23;20025;-78
2023/03/31 05:41:15;;;;;;;10.35;5.43;;;;;;;9.89;72.47;95569.50;6186912;23;20116;-78
2023/03/31 05:43:43;;;;;;;13.73;7.10;;;;;;;9.88;72.23;95567.88;6186933;23;20025;-78
2023/03/31 05:46:12;;;;;;;13.07;6.43;;;;;;;9.86;72.46;95570.72;6186606;23;20031;-78
2023/03/31 05:48:41;;;;;;;17.45;7.43;;;;;;;9.85;73.56;95587.31;6186717;23;20021;-77
2023/03/31 05:51:08;;;;;;;10.02;6.00;;;;;;;9.90;73.30;95584.94;6186964;23;20036;-78
2023/03/31 05:53:36;;;;;;;11.15;6.25;;;;;;;9.91;72.85;95583.13;6186343;23;20510;-78
2023/03/31 05:56:06;;;;;;;8.80;6.28;;;;;;;9.88;73.43;95589.53;6186438;23;20027;-78
2023/03/31 05:58:35;;;;;;;9.57;6.30;;;;;;;9.89;73.31;95591.13;6186868;23;20052;-78
2023/03/31 06:01:06;;;;;;;9.57;6.53;;;;;;;9.94;74.05;95593.13;6182968;23;20063;-78
2023/03/31 06:03:37;;;;;;;7.65;5.78;;;;;;;9.97;75.22;95616.19;6178422;23;20455;-78
2023/03/31 06:06:06;;;;;;;10.20;6.32;;;;;;;10.01;75.08;95613.97;6184160;23;20028;-79
2023/03/31 06:08:34;;;;;;;10.30;5.60;;;;;;;10.06;75.13;95619.38;6184464;23;20555;-79
2023/03/31 06:11:04;;;;;;;9.57;5.93;;;;;;;10.11;76.38;95609.16;6184935;23;20036;-78
2023/03/31 06:13:33;;;;;;;8.95;6.10;;;;;;;10.16;76.21;95622.38;6184095;23;20036;-78
2023/03/31 06:16:00;;;;;;;10.02;6.15;;;;;;;10.22;75.69;95620.75;6185183;23;20027;-77
2023/03/31 06:18:29;;;;;;;11.32;6.18;;;;;;;10.24;76.25;95619.53;6185811;23;20083;-78
2023/03/31 06:20:59;;;;;;;9.93;6.10;;;;;;;10.26;75.38;95612.34;6186116;23;20021;-79
2023/03/31 06:23:27;;;;;;;9.80;6.15;;;;;;;10.26;75.94;95607.13;6185739;23;20025;-77
2023/03/31 06:25:54;;;;;;;10.95;5.05;;;;;;;10.32;76.40;95610.75;6184980;23;20028;-78
2023/03/31 06:28:22;;;;;;;8.98;5.47;;;;;;;10.35;75.74;95591.28;6184880;23;20077;-77
2023/03/31 06:30:50;;;;;;;16.38;9.80;;;;;;;10.36;75.60;95587.66;6185876;23;20151;-78
2023/03/31 06:33:17;;;;;;;13.13;6.82;;;;;;;10.36;75.49;95582.47;6185528;23;20024;-77
2023/03/31 06:35:45;;;;;;;12.55;7.18;;;;;;;10.34;75.45;95561.78;6185815;23;20024;-78
2023/03/31 06:38:14;;;;;;;11.70;6.60;;;;;;;10.32;75.46;95556.00;6185698;23;20039;-78
2023/03/31 06:40:42;;;;;;;14.85;6.95;;;;;;;10.27;75.69;95547.97;6185414;23;20482;-78
2023/03/31 06:43:09;;;;;;;13.85;7.97;;;;;;;10.26;75.65;95541.97;6184883;23;20467;-78
2023/03/31 06:45:37;;;;;;;15.95;7.75;;;;;;;10.24;75.72;95535.34;6185406;23;20021;-78
2023/03/31 06:48:06;;;;;;;9.82;6.32;;;;;;;10.19;75.74;95535.97;6185402;23;20021;-78
2023/03/31 06:50:33;;;;;;;8.70;6.97;;;;;;;10.18;76.53;95536.97;6185304;23;20537;-78
2023/03/31 06:53:01;;;;;;;12.98;7.68;;;;;;;10.19;76.48;95528.16;6185374;23;20027;-78
2023/03/31 06:55:30;;;;;;;9.98;6.75;;;;;;;10.18;76.30;95516.13;6185652;23;20025;-78
2023/03/31 06:57:57;;;;;;;10.27;6.60;;;;;;;10.19;76.38;95496.88;6185615;23;20023;-78
2023/03/31 07:00:25;;;;;;;8.80;6.65;;;;;;;10.22;77.24;95483.44;6185918;23;20021;-78
2023/03/31 07:02:54;;;;;;;12.10;7.45;;;;;;;10.22;76.41;95485.25;6185302;23;20024;-78
2023/03/31 07:05:26;;;;;;;13.38;6.85;;;;;;;10.19;76.50;95499.50;6185498;23;20025;-78
2023/03/31 07:07:54;;;;;;;11.57;6.82;;;;;;;10.19;76.90;95485.63;6185185;23;20067;-78
2023/03/31 07:10:22;;;;;;;12.85;7.50;;;;;;;10.21;76.61;95481.03;6185947;23;20025;-78
2023/03/31 07:12:51;;;;;;;12.30;8.00;;;;;;;10.21;76.82;95484.44;6186929;23;20028;-78
2023/03/31 07:15:19;;;;;;;10.80;7.70;;;;;;;10.22;76.56;95480.81;6201698;23;20077;-79
2023/03/31 07:17:49;;;;;;;9.93;7.15;;;;;;;10.23;77.46;95466.81;6202399;23;20045;-78
2023/03/31 07:20:18;;;;;;;13.32;6.68;;;;;;;10.28;77.07;95468.78;6187541;23;20040;-78
2023/03/31 07:22:48;;;;;;;11.30;6.97;;;;;;;10.29;77.39;95471.19;6186189;23;20021;-78
2023/03/31 07:25:17;;;;;;;11.35;6.32;;;;;;;10.34;78.05;95499.25;6185009;23;20388;-78
2023/03/31 07:27:45;;;;;;;9.90;6.15;;;;;;;10.38;78.41;95513.47;6184937;23;20358;-78
2023/03/31 07:30:16;;;;;;;10.18;7.03;;;;;;;10.42;78.95;95511.25;6185455;23;20017;-78
2023/03/31 07:32:45;;;;;;;9.70;6.28;;;;;;;10.43;77.64;95536.31;6185129;23;20017;-78
2023/03/31 07:35:14;;;;;;;13.52;7.03;;;;;;;10.43;77.44;95533.69;6185667;23;20080;-78
2023/03/31 07:37:44;;;;;;;7.45;5.55;;;;;;;10.45;77.57;95557.75;6185431;23;20027;-78
2023/03/31 07:40:15;;;;;;;9.93;5.20;;;;;;;10.49;77.86;95579.81;6185527;23;20048;-78
2023/03/31 07:42:45;;;;;;;8.07;5.38;;;;;;;10.50;77.83;95586.63;6185513;23;20025;-78
2023/03/31 07:45:18;;;;;;;8.63;5.72;;;;;;;10.50;77.98;95623.13;6185091;23;20017;-78
2023/03/31 07:47:46;;;;;;;7.20;4.85;;;;;;;10.49;77.38;95634.56;6185760;23;20021;-78
2023/03/31 07:50:15;;;;;;;8.25;4.50;;;;;;;10.47;77.74;95644.38;6185031;23;20017;-77
2023/03/31 07:52:43;;;;;;;5.85;3.92;;;;;;;10.47;77.92;95613.09;6184593;23;20023;-78
2023/03/31 07:55:14;;;;;;;5.53;3.88;;;;;;;10.47;77.83;95579.22;6185198;23;20025;-79
2023/03/31 07:57:44;;;;;;;3.95;2.55;;;;;;;10.46;77.24;95543.72;6185144;23;20025;-78
2023/03/31 08:00:13;;;;;;;3.72;2.83;;;;;;;10.51;76.59;95507.41;6184908;23;20534;-78
2023/03/31 08:02:44;;;;;;;4.75;2.63;;;;;;;10.55;75.11;95468.69;6184721;23;20092;-78
2023/03/31 08:05:13;;;;;;;3.55;2.47;;;;;;;10.56;75.55;95494.56;6185013;23;20075;-78
2023/03/31 08:07:44;;;;;;;3.30;2.42;;;;;;;10.56;75.05;95489.34;6185338;23;20060;-78
2023/03/31 08:10:14;;;;;;;2.22;2.05;;;;;;;10.57;74.70;95485.72;6185038;23;20021;-78
2023/03/31 08:12:41;;;;;;;4.65;1.73;;;;;;;10.63;74.13;95479.66;6184735;23;20023;-78
2023/03/31 08:15:10;;;;;;;1.42;1.02;;;;;;;10.69;71.98;95476.22;6184824;23;20048;-78
2023/03/31 08:17:38;;;;;;;2.15;1.30;;;;;;;10.81;72.17;95472.94;6184932;23;20099;-78
2023/03/31 08:20:09;;;;;;;1.63;1.38;;;;;;;10.99;70.35;95456.56;6185063;23;20021;-78
2023/03/31 08:22:37;;;;;;;1.70;0.98;;;;;;;11.01;71.47;95478.81;6184526;23;20096;-78
2023/03/31 08:25:06;;;;;;;2.65;1.10;;;;;;;11.02;70.60;95479.59;6185326;23;20024;-78
2023/03/31 08:27:35;;;;;;;2.50;1.20;;;;;;;11.08;69.91;95474.34;6185389;23;20040;-78
2023/03/31 08:30:03;;;;;;;1.25;1.13;;;;;;;11.69;68.87;95477.25;6188799;23;20021;-78
2023/03/31 08:32:31;;;;;;;1.17;0.80;;;;;;;12.14;66.89;95453.50;6207071;23;20024;-78
2023/03/31 08:35:00;;;;;;;4.35;1.67;;;;;;;12.04;66.57;95440.91;6206701;23;20001;-78
2023/03/31 08:37:30;;;;;;;3.33;1.20;;;;;;;12.10;66.54;95426.97;6194278;23;20017;-78
2023/03/31 08:39:58;;;;;;;3.40;1.30;;;;;;;13.15;64.49;95424.91;6185050;23;20056;-78
2023/03/31 08:42:36;;;;;;;1.85;1.20;;;;;;;14.72;61.51;95433.66;6184594;23;20028;-78
2023/03/31 08:45:11;;;;;;;3.22;1.40;;;;;;;15.82;57.35;95451.63;6184721;23;20024;-78
2023/03/31 08:47:40;;;;;;;2.38;1.17;;;;;;;16.48;54.02;95455.06;6184676;23;20036;-78
2023/03/31 08:50:13;;;;;;;1.13;0.90;;;;;;;16.67;52.94;95454.75;6184664;23;20017;-78
2023/03/31 08:52:47;;;;;;;2.53;1.27;;;;;;;16.68;53.88;95457.13;6184428;23;20025;-78
2023/03/31 08:55:22;;;;;;;1.98;0.88;;;;;;;17.70;51.57;95435.28;6184193;23;20017;-78
2023/03/31 08:57:59;;;;;;;1.70;0.80;;;;;;;18.66;49.29;95428.03;6184807;23;20028;-78
2023/03/31 09:00:38;;;;;;;1.73;1.10;;;;;;;19.35;46.41;95440.03;6184598;23;20023;-78
2023/03/31 09:03:16;;;;;;;1.83;0.70;;;;;;;19.78;47.02;95424.63;6183971;23;20031;-78
2023/03/31 09:05:49;;;;;;;1.65;0.80;;;;;;;20.22;46.82;95420.50;6184441;23;20021;-78
2023/03/31 09:08:35;;;;;;;3.35;0.98;;;;;;;20.61;43.82;95430.41;6184061;23;20028;-79
2023/03/31 09:11:10;;;;;;;1.90;0.60;;;;;;;20.81;43.71;95427.63;6185063;23;20101;-79
2023/03/31 09:13:56;;;;;;;2.50;0.85;;;;;;;20.92;41.63;95423.84;6185356;23;20354;-79
2023/03/31 09:16:27;;;;;;;2.13;0.80;;;;;;;20.94;42.42;95426.22;6185501;23;20023;-79
2023/03/31 09:18:59;;;;;;;0.82;0.50;;;;;;;20.92;43.78;95418.53;6185828;23;20300;-79
2023/03/31 09:21:29;;;;;;;;;;;;;;;21.11;43.25;95416.03;6187900;23;20032;-79
2023/03/31 09:24:04;;;;;;;3.78;0.80;;;;;;;21.24;45.00;95417.25;6185670;23;19917;-77
2023/03/31 09:26:37;;;;;;;1.80;0.57;;;;;;;21.26;44.42;95422.28;6184051;23;20582;-77
2023/03/31 09:29:10;;;;;;;1.77;0.60;;;;;;;21.30;43.35;95415.34;6184625;23;20104;-78
2023/03/31 09:31:41;;;;;;;1.85;1.02;;;;;;;21.33;43.49;95417.44;6183721;23;20064;-77
2023/03/31 09:34:15;;;;;;;1.30;0.75;;;;;;;21.45;43.84;95419.75;6184419;23;20029;-77
2023/03/31 09:36:43;;;;;;;2.60;0.65;;;;;;;21.49;42.46;95397.66;6184761;23;20353;-78
2023/03/31 09:39:14;;;;;;;2.67;1.05;;;;;;;21.58;43.83;95403.97;6184392;23;20032;-78
2023/03/31 09:41:45;;;;;;;1.08;0.70;;;;;;;21.64;42.32;95407.34;6183967;23;20100;-77
2023/03/31 09:44:24;;;;;;;1.40;0.40;;;;;;;21.66;39.33;95410.50;6184125;23;20122;-78
2023/03/31 09:46:53;;;;;;;2.80;0.50;;;;;;;21.54;43.87;95420.75;6184363;23;20025;-78
2023/03/31 09:49:23;;;;;;;1.65;0.60;;;;;;;21.57;41.17;95407.69;6184104;23;20025;-78
2023/03/31 09:52:01;;;;;;;1.35;0.38;;;;;;;21.55;41.86;95406.38;6184060;23;20043;-78
2023/03/31 09:54:36;;;;;;;1.65;0.70;;;;;;;21.68;40.31;95387.16;6183848;23;20025;-78
2023/03/31 09:57:13;;;;;;;2.85;0.43;;;;;;;21.79;38.68;95375.34;6184371;23;20045;-78
2023/03/31 09:59:42;;;;;;;1.67;0.63;;;;;;;21.84;40.91;95389.63;6183896;23;20497;-78
2023/03/31 10:02:28;;;;;;;1.48;0.57;;;;;;;21.99;40.69;95394.75;6183856;23;20415;-78
2023/03/31 10:04:56;;;;;;;0.80;0.50;;;;;;;22.11;37.57;95373.13;6184315;23;20025;-78
2023/03/31 10:07:25;;;;;;;1.40;0.35;;;;;;;22.01;38.15;95384.66;6184210;23;20043;-78
2023/03/31 10:09:55;;;;;;;2.05;0.70;;;;;;;21.88;37.38;95390.66;6184620;23;20056;-78
2023/03/31 10:12:26;;;;;;;1.67;0.60;;;;;;;21.75;37.25;95376.97;6184100;23;20024;-78
2023/03/31 10:15:00;;;;;;;1.13;0.43;;;;;;;21.60;39.43;95383.25;6184509;23;20201;-78
2023/03/31 10:17:28;;;;;;;1.02;0.38;;;;;;;21.34;40.28;95380.03;6185327;23;20031;-78
2023/03/31 10:20:17;;;;;;;1.48;0.20;;;;;;;20.98;41.02;95368.94;6186274;23;20021;-78
2023/03/31 10:22:46;;;;;;;2.05;0.73;;;;;;;20.76;40.72;95340.22;6185283;23;20028;-78
2023/03/31 10:25:18;;;;;;;1.70;0.80;;;;;;;20.72;41.88;95353.22;6185420;23;20474;-77
2023/03/31 10:27:49;;;;;;;1.17;0.73;;;;;;;20.86;41.41;95329.56;6185447;23;20025;-78
2023/03/31 10:30:22;;;;;;;1.10;0.50;;;;;;;21.04;41.82;95338.66;6185883;23;20021;-78
2023/03/31 10:32:49;;;;;;;;;;;;;;;21.23;40.06;95333.47;6185789;23;20023;-78
2023/03/31 10:35:26;;;;;;;0.95;0.30;;;;;;;21.17;39.54;95330.06;6185553;23;20267;-78
2023/03/31 10:37:56;;;;;;;2.50;0.57;;;;;;;20.65;40.25;95344.03;6186002;23;20021;-78
2023/03/31 10:40:28;;;;;;;1.48;0.82;;;;;;;20.31;41.14;95344.72;6185859;23;20021;-77
2023/03/31 10:43:03;;;;;;;0.93;0.50;;;;;;;20.14;42.65;95355.69;6186070;23;20025;-78
2023/03/31 10:45:36;;;;;;;2.25;0.70;;;;;;;20.08;41.13;95346.97;6186617;23;20282;-78
2023/03/31 10:48:16;;;;;;;3.65;0.80;;;;;;;19.93;40.10;95334.59;6191614;23;20028;-78
2023/03/31 10:50:44;;;;;;;1.88;0.68;;;;;;;19.89;41.59;95330.13;6191618;23;20501;-78
2023/03/31 10:53:14;;;;;;;3.53;0.80;;;;;;;20.02;42.82;95316.28;6190890;23;20081;-78
2023/03/31 10:55:51;;;;;;;1.00;0.52;;;;;;;20.17;39.16;95304.84;6192235;23;20076;-78
2023/03/31 10:58:31;;;;;;;4.10;2.33;;;;;;;20.23;39.74;95305.59;6190937;23;20505;-78
2023/03/31 11:01:09;;;;;;;3.70;1.95;;;;;;;20.35;39.11;95308.69;6190221;23;20470;-77
2023/03/31 11:04:00;;;;;;;3.50;0.63;;;;;;;20.44;40.49;95298.31;6185850;23;20028;-78
2023/03/31 11:06:37;;;;;;;2.95;1.10;;;;;;;20.50;37.34;95294.56;6186107;23;20025;-78
2023/03/31 11:09:19;;;;;;;3.85;0.98;;;;;;;20.62;36.30;95302.16;6185871;23;20021;-78
2023/03/31 11:11:58;;;;;;;2.35;0.68;;;;;;;20.69;37.22;95292.06;6185259;23;20021;-78
2023/03/31 11:14:40;;;;;;;2.13;0.60;;;;;;;20.87;39.39;95277.31;6186209;23;20017;-78
2023/03/31 11:17:22;;;;;;;3.63;1.13;;;;;;;21.13;39.90;95280.53;6185976;23;20482;-78
2023/03/31 11:19:56;;;;;;;2.22;0.73;;;;;;;21.35;38.56;95272.84;6185541;23;20486;-77
2023/03/31 11:22:33;;;;;;;1.65;0.38;;;;;;;21.49;36.36;95291.56;6184815;23;20489;-77
2023/03/31 11:25:30;;;;;;;4.90;0.95;;;;;;;21.48;33.27;95270.63;6185142;23;20099;-77
2023/03/31 11:28:26;;;;;;;2.95;0.80;;;;;;;21.38;35.68;95271.50;6183130;23;20096;-77
2023/03/31 11:31:01;;;;;;;5.85;1.33;;;;;;;21.34;35.51;95260.69;6185402;23;20415;-78
2023/03/31 11:33:41;;;;;;;3.40;0.98;;;;;;;21.33;34.79;95248.47;6184914;23;20031;-78
2023/03/31 11:36:21;;;;;;;4.35;1.08;;;;;;;21.32;36.06;95241.59;6185381;23;20021;-77
2023/03/31 11:39:10;;;;;;;2.25;0.70;;;;;;;21.30;33.38;95235.78;6185127;23;20541;-78
2023/03/31 11:41:44;;;;;;;2.67;1.15;;;;;;;21.27;34.35;95233.69;6184994;23;20017;-78
2023/03/31 11:44:16;;;;;;;1.50;0.70;;;;;;;21.21;32.70;95234.84;6184922;23;20032;-77
2023/03/31 11:46:49;;;;;;;2.10;0.88;;;;;;;21.09;33.82;95231.78;6184700;23;20021;-78
2023/03/31 11:49:20;;;;;;;3.85;1.13;;;;;;;20.89;33.37;95215.00;6185638;23;20032;-77
2023/03/31 11:51:54;;;;;;;3.15;0.93;;;;;;;20.72;34.25;95212.78;6184815;23;20514;-78
2023/03/31 11:54:28;;;;;;;3.22;0.90;;;;;;;20.57;36.24;95212.94;6185131;23;20025;-77
2023/03/31 11:56:56;;;;;;;3.55;0.95;;;;;;;20.33;35.01;95220.78;6185249;23;20108;-78